sensor_id;sensor_type;location;lat;lon;timestamp;P1;durP1;ratioP1;P2;durP2;ratioP2
60896;SDS011;46749;32.932;-117.130;2022-07-21T00:00:19;1.25;;;0.57;;
60896;SDS011;46749;32.932;-117.130;2022-07-21T00:02:46;0.95;;;0.43;;
60896;SDS011;46749;32.932;-117.130;2022-07-21T00:05:13;3.05;;;0.52;;
60896;SDS011;46749;32.932;-117.130;2022-07-21T00:07:40;1.08;;;0.60;;
60896;SDS011;46749;32.932;-117.130;2022-07-21T00:10:06;1.08;;;0.43;;
60896;SDS011;46749;32.932;-117.130;2022-07-21T00:12:32;0.68;;;0.50;;
60896;SDS011;46749;32.932;-117.130;2022-07-21T00:14:59;1.23;;;0.50;;
60896;SDS011;46749;32.932;-117.130;2022-07-21T00:17:25;1.08;;;0.55;;
60896;SDS011;46749;32.932;-117.130;2022-07-21T00:19:51;0.88;;;0.60;;
60896;SDS011;46749;32.932;-117.130;2022-07-21T00:22:17;0.70;;;0.50;;
60896;SDS011;46749;32.932;-117.130;2022-07-21T00:24:44;1.25;;;0.60;;
60896;SDS011;46749;32.932;-117.130;2022-07-21T00:27:10;1.05;;;0.50;;
60896;SDS011;46749;32.932;-117.130;2022-07-21T00:29:36;1.48;;;0.60;;
60896;SDS011;46749;32.932;-117.130;2022-07-21T00:32:02;1.95;;;0.50;;
60896;SDS011;46749;32.932;-117.130;2022-07-21T00:34:31;0.85;;;0.45;;
60896;SDS011;46749;32.932;-117.130;2022-07-21T00:36:58;1.20;;;0.55;;
60896;SDS011;46749;32.932;-117.130;2022-07-21T00:39:24;0.70;;;0.60;;
60896;SDS011;46749;32.932;-117.130;2022-07-21T00:41:50;1.45;;;0.55;;
60896;SDS011;46749;32.932;-117.130;2022-07-21T00:44:20;1.40;;;0.60;;
60896;SDS011;46749;32.932;-117.130;2022-07-21T00:46:51;1.65;;;0.70;;
60896;SDS011;46749;32.932;-117.130;2022-07-21T00:49:17;1.00;;;0.57;;
60896;SDS011;46749;32.932;-117.130;2022-07-21T00:51:45;3.08;;;0.40;;
60896;SDS011;46749;32.932;-117.130;2022-07-21T00:54:13;0.95;;;0.45;;
60896;SDS011;46749;32.932;-117.130;2022-07-21T00:56:41;1.10;;;0.63;;
60896;SDS011;46749;32.932;-117.130;2022-07-21T00:59:08;1.23;;;0.57;;
60896;SDS011;46749;32.932;-117.130;2022-07-21T01:01:36;1.35;;;0.50;;
60896;SDS011;46749;32.932;-117.130;2022-07-21T01:04:02;0.85;;;0.40;;
60896;SDS011;46749;32.932;-117.130;2022-07-21T01:06:28;2.88;;;0.68;;
60896;SDS011;46749;32.932;-117.130;2022-07-21T01:08:54;1.08;;;0.52;;
60896;SDS011;46749;32.932;-117.130;2022-07-21T01:11:23;1.58;;;0.88;;
60896;SDS011;46749;32.932;-117.130;2022-07-21T01:13:50;1.00;;;0.57;;
60896;SDS011;46749;32.932;-117.130;2022-07-21T01:16:16;1.05;;;0.65;;
60896;SDS011;46749;32.932;-117.130;2022-07-21T01:18:43;0.68;;;0.50;;
60896;SDS011;46749;32.932;-117.130;2022-07-21T01:21:42;1.02;;;0.50;;
60896;SDS011;46749;32.932;-117.130;2022-07-21T01:24:02;1.88;;;1.10;;
60896;SDS011;46749;32.932;-117.130;2022-07-21T01:26:30;1.38;;;0.65;;
60896;SDS011;46749;32.932;-117.130;2022-07-21T01:29:04;0.90;;;0.60;;
60896;SDS011;46749;32.932;-117.130;2022-07-21T01:31:30;0.57;;;0.45;;
60896;SDS011;46749;32.932;-117.130;2022-07-21T01:33:57;1.75;;;0.85;;
60896;SDS011;46749;32.932;-117.130;2022-07-21T01:36:23;2.15;;;0.70;;
60896;SDS011;46749;32.932;-117.130;2022-07-21T01:38:49;0.65;;;0.43;;
60896;SDS011;46749;32.932;-117.130;2022-07-21T01:41:33;1.20;;;0.57;;
60896;SDS011;46749;32.932;-117.130;2022-07-21T01:44:03;1.20;;;0.60;;
60896;SDS011;46749;32.932;-117.130;2022-07-21T01:46:32;0.95;;;0.70;;
60896;SDS011;46749;32.932;-117.130;2022-07-21T01:49:00;1.95;;;0.52;;
60896;SDS011;46749;32.932;-117.130;2022-07-21T01:51:27;2.05;;;0.85;;
60896;SDS011;46749;32.932;-117.130;2022-07-21T01:53:53;1.10;;;0.60;;
60896;SDS011;46749;32.932;-117.130;2022-07-21T01:56:20;1.67;;;0.65;;
60896;SDS011;46749;32.932;-117.130;2022-07-21T01:58:51;1.48;;;0.60;;
60896;SDS011;46749;32.932;-117.130;2022-07-21T02:01:19;1.63;;;0.60;;
60896;SDS011;46749;32.932;-117.130;2022-07-21T02:03:46;1.25;;;0.70;;
60896;SDS011;46749;32.932;-117.130;2022-07-21T02:06:13;1.27;;;0.65;;
60896;SDS011;46749;32.932;-117.130;2022-07-21T02:08:40;1.83;;;0.50;;
60896;SDS011;46749;32.932;-117.130;2022-07-21T02:11:10;1.55;;;0.60;;
60896;SDS011;46749;32.932;-117.130;2022-07-21T02:13:37;2.22;;;0.93;;
60896;SDS011;46749;32.932;-117.130;2022-07-21T02:16:03;0.73;;;0.50;;
60896;SDS011;46749;32.932;-117.130;2022-07-21T02:18:30;1.33;;;0.50;;
60896;SDS011;46749;32.932;-117.130;2022-07-21T02:20:56;0.85;;;0.60;;
60896;SDS011;46749;32.932;-117.130;2022-07-21T02:23:23;2.70;;;0.60;;
60896;SDS011;46749;32.932;-117.130;2022-07-21T02:25:51;2.28;;;0.73;;
60896;SDS011;46749;32.932;-117.130;2022-07-21T02:28:20;1.90;;;0.70;;
60896;SDS011;46749;32.932;-117.130;2022-07-21T02:30:47;1.40;;;0.60;;
60896;SDS011;46749;32.932;-117.130;2022-07-21T02:33:14;0.93;;;0.52;;
60896;SDS011;46749;32.932;-117.130;2022-07-21T02:35:41;1.00;;;0.70;;
60896;SDS011;46749;32.932;-117.130;2022-07-21T02:38:07;1.20;;;0.65;;
60896;SDS011;46749;32.932;-117.130;2022-07-21T02:40:34;0.70;;;0.40;;
60896;SDS011;46749;32.932;-117.130;2022-07-21T02:43:00;2.97;;;0.70;;
60896;SDS011;46749;32.932;-117.130;2022-07-21T02:45:27;1.25;;;0.70;;
60896;SDS011;46749;32.932;-117.130;2022-07-21T02:48:11;1.98;;;0.60;;
60896;SDS011;46749;32.932;-117.130;2022-07-21T02:50:39;0.63;;;0.57;;
60896;SDS011;46749;32.932;-117.130;2022-07-21T02:53:09;1.73;;;0.80;;
60896;SDS011;46749;32.932;-117.130;2022-07-21T02:55:37;1.17;;;0.50;;
60896;SDS011;46749;32.932;-117.130;2022-07-21T02:58:05;0.85;;;0.52;;
60896;SDS011;46749;32.932;-117.130;2022-07-21T03:00:43;0.77;;;0.60;;
60896;SDS011;46749;32.932;-117.130;2022-07-21T03:03:21;1.23;;;0.60;;
60896;SDS011;46749;32.932;-117.130;2022-07-21T03:05:48;0.90;;;0.60;;
60896;SDS011;46749;32.932;-117.130;2022-07-21T03:08:14;1.08;;;0.60;;
60896;SDS011;46749;32.932;-117.130;2022-07-21T03:10:41;1.25;;;0.60;;
60896;SDS011;46749;32.932;-117.130;2022-07-21T03:13:08;1.40;;;0.60;;
60896;SDS011;46749;32.932;-117.130;2022-07-21T03:15:35;1.13;;;0.60;;
60896;SDS011;46749;32.932;-117.130;2022-07-21T03:18:02;1.42;;;0.60;;
60896;SDS011;46749;32.932;-117.130;2022-07-21T03:20:30;0.73;;;0.52;;
60896;SDS011;46749;32.932;-117.130;2022-07-21T03:22:57;1.50;;;0.68;;
60896;SDS011;46749;32.932;-117.130;2022-07-21T03:25:24;1.23;;;0.70;;
60896;SDS011;46749;32.932;-117.130;2022-07-21T03:27:51;2.70;;;0.60;;
60896;SDS011;46749;32.932;-117.130;2022-07-21T03:30:17;1.35;;;0.80;;
60896;SDS011;46749;32.932;-117.130;2022-07-21T03:32:44;1.10;;;0.60;;
60896;SDS011;46749;32.932;-117.130;2022-07-21T03:35:11;1.10;;;0.68;;
60896;SDS011;46749;32.932;-117.130;2022-07-21T03:37:46;0.52;;;0.47;;
60896;SDS011;46749;32.932;-117.130;2022-07-21T03:40:23;1.20;;;0.80;;
60896;SDS011;46749;32.932;-117.130;2022-07-21T03:42:52;1.80;;;0.60;;
60896;SDS011;46749;32.932;-117.130;2022-07-21T03:45:21;2.22;;;0.70;;
60896;SDS011;46749;32.932;-117.130;2022-07-21T03:47:48;0.70;;;0.50;;
60896;SDS011;46749;32.932;-117.130;2022-07-21T03:50:15;0.55;;;0.50;;
60896;SDS011;46749;32.932;-117.130;2022-07-21T03:52:44;0.68;;;0.52;;
60896;SDS011;46749;32.932;-117.130;2022-07-21T03:55:11;0.93;;;0.45;;
60896;SDS011;46749;32.932;-117.130;2022-07-21T03:57:59;2.45;;;0.80;;
60896;SDS011;46749;32.932;-117.130;2022-07-21T04:00:32;1.73;;;0.73;;
60896;SDS011;46749;32.932;-117.130;2022-07-21T04:03:00;0.90;;;0.60;;
60896;SDS011;46749;32.932;-117.130;2022-07-21T04:05:27;0.70;;;0.40;;
60896;SDS011;46749;32.932;-117.130;2022-07-21T04:07:54;1.83;;;0.60;;
60896;SDS011;46749;32.932;-117.130;2022-07-21T04:10:22;2.05;;;0.70;;
60896;SDS011;46749;32.932;-117.130;2022-07-21T04:12:53;0.77;;;0.75;;
60896;SDS011;46749;32.932;-117.130;2022-07-21T04:15:21;2.13;;;0.77;;
60896;SDS011;46749;32.932;-117.130;2022-07-21T04:17:47;2.38;;;0.70;;
60896;SDS011;46749;32.932;-117.130;2022-07-21T04:20:14;2.15;;;0.60;;
60896;SDS011;46749;32.932;-117.130;2022-07-21T04:22:41;1.42;;;0.60;;
60896;SDS011;46749;32.932;-117.130;2022-07-21T04:25:09;2.35;;;0.80;;
60896;SDS011;46749;32.932;-117.130;2022-07-21T04:27:35;1.05;;;0.70;;
60896;SDS011;46749;32.932;-117.130;2022-07-21T04:30:03;1.20;;;0.55;;
60896;SDS011;46749;32.932;-117.130;2022-07-21T04:32:30;2.63;;;0.63;;
60896;SDS011;46749;32.932;-117.130;2022-07-21T04:34:57;1.20;;;0.60;;
60896;SDS011;46749;32.932;-117.130;2022-07-21T04:37:23;0.80;;;0.60;;
60896;SDS011;46749;32.932;-117.130;2022-07-21T04:39:49;0.95;;;0.45;;
60896;SDS011;46749;32.932;-117.130;2022-07-21T04:42:15;1.65;;;0.50;;
60896;SDS011;46749;32.932;-117.130;2022-07-21T04:44:41;0.95;;;0.50;;
60896;SDS011;46749;32.932;-117.130;2022-07-21T04:47:07;0.90;;;0.60;;
60896;SDS011;46749;32.932;-117.130;2022-07-21T04:49:33;1.30;;;0.77;;
60896;SDS011;46749;32.932;-117.130;2022-07-21T04:51:59;0.60;;;0.57;;
60896;SDS011;46749;32.932;-117.130;2022-07-21T04:54:26;1.45;;;0.50;;
60896;SDS011;46749;32.932;-117.130;2022-07-21T04:56:52;2.35;;;0.60;;
60896;SDS011;46749;32.932;-117.130;2022-07-21T04:59:18;0.82;;;0.50;;
60896;SDS011;46749;32.932;-117.130;2022-07-21T05:01:44;0.88;;;0.50;;
60896;SDS011;46749;32.932;-117.130;2022-07-21T05:04:10;0.65;;;0.47;;
60896;SDS011;46749;32.932;-117.130;2022-07-21T05:06:36;0.50;;;0.50;;
60896;SDS011;46749;32.932;-117.130;2022-07-21T05:09:03;1.30;;;0.60;;
60896;SDS011;46749;32.932;-117.130;2022-07-21T05:11:29;0.57;;;0.55;;
60896;SDS011;46749;32.932;-117.130;2022-07-21T05:13:55;0.93;;;0.60;;
60896;SDS011;46749;32.932;-117.130;2022-07-21T05:16:22;0.80;;;0.45;;
60896;SDS011;46749;32.932;-117.130;2022-07-21T05:18:49;1.15;;;0.50;;
60896;SDS011;46749;32.932;-117.130;2022-07-21T05:21:15;1.70;;;0.68;;
60896;SDS011;46749;32.932;-117.130;2022-07-21T05:23:41;0.98;;;0.50;;
60896;SDS011;46749;32.932;-117.130;2022-07-21T05:26:07;1.20;;;0.55;;
60896;SDS011;46749;32.932;-117.130;2022-07-21T05:28:33;2.30;;;0.60;;
60896;SDS011;46749;32.932;-117.130;2022-07-21T05:30:59;0.90;;;0.47;;
60896;SDS011;46749;32.932;-117.130;2022-07-21T05:33:26;1.05;;;0.52;;
60896;SDS011;46749;32.932;-117.130;2022-07-21T05:35:52;1.23;;;0.50;;
60896;SDS011;46749;32.932;-117.130;2022-07-21T05:38:18;1.30;;;0.70;;
60896;SDS011;46749;32.932;-117.130;2022-07-21T05:40:44;1.50;;;0.75;;
60896;SDS011;46749;32.932;-117.130;2022-07-21T05:43:10;1.33;;;0.52;;
60896;SDS011;46749;32.932;-117.130;2022-07-21T05:45:36;0.95;;;0.50;;
60896;SDS011;46749;32.932;-117.130;2022-07-21T05:48:02;0.93;;;0.50;;
60896;SDS011;46749;32.932;-117.130;2022-07-21T05:50:28;2.13;;;0.50;;
60896;SDS011;46749;32.932;-117.130;2022-07-21T05:52:55;1.50;;;0.50;;
60896;SDS011;46749;32.932;-117.130;2022-07-21T05:55:21;0.45;;;0.40;;
60896;SDS011;46749;32.932;-117.130;2022-07-21T05:57:47;1.15;;;0.40;;
60896;SDS011;46749;32.932;-117.130;2022-07-21T06:00:14;0.63;;;0.40;;
60896;SDS011;46749;32.932;-117.130;2022-07-21T06:02:41;0.55;;;0.40;;
60896;SDS011;46749;32.932;-117.130;2022-07-21T06:05:08;0.80;;;0.50;;
60896;SDS011;46749;32.932;-117.130;2022-07-21T06:07:36;0.90;;;0.47;;
60896;SDS011;46749;32.932;-117.130;2022-07-21T06:10:03;0.98;;;0.40;;
60896;SDS011;46749;32.932;-117.130;2022-07-21T06:12:29;1.10;;;0.55;;
60896;SDS011;46749;32.932;-117.130;2022-07-21T06:14:55;0.65;;;0.40;;
60896;SDS011;46749;32.932;-117.130;2022-07-21T06:17:22;0.30;;;0.30;;
60896;SDS011;46749;32.932;-117.130;2022-07-21T06:19:50;0.88;;;0.50;;
60896;SDS011;46749;32.932;-117.130;2022-07-21T06:22:16;1.08;;;0.40;;
60896;SDS011;46749;32.932;-117.130;2022-07-21T06:24:43;0.77;;;0.30;;
60896;SDS011;46749;32.932;-117.130;2022-07-21T06:27:10;0.63;;;0.43;;
60896;SDS011;46749;32.932;-117.130;2022-07-21T06:29:36;0.63;;;0.40;;
60896;SDS011;46749;32.932;-117.130;2022-07-21T06:32:02;0.88;;;0.30;;
60896;SDS011;46749;32.932;-117.130;2022-07-21T06:34:28;0.60;;;0.43;;
60896;SDS011;46749;32.932;-117.130;2022-07-21T06:36:54;0.38;;;0.30;;
60896;SDS011;46749;32.932;-117.130;2022-07-21T06:39:20;1.27;;;0.60;;
60896;SDS011;46749;32.932;-117.130;2022-07-21T06:41:47;0.45;;;0.40;;
60896;SDS011;46749;32.932;-117.130;2022-07-21T06:44:13;0.38;;;0.38;;
60896;SDS011;46749;32.932;-117.130;2022-07-21T06:46:41;0.57;;;0.30;;
60896;SDS011;46749;32.932;-117.130;2022-07-21T06:49:07;0.63;;;0.40;;
60896;SDS011;46749;32.932;-117.130;2022-07-21T06:51:33;0.88;;;0.30;;
60896;SDS011;46749;32.932;-117.130;2022-07-21T06:53:59;0.47;;;0.30;;
60896;SDS011;46749;32.932;-117.130;2022-07-21T06:56:25;0.52;;;0.30;;
60896;SDS011;46749;32.932;-117.130;2022-07-21T06:58:51;0.43;;;0.40;;
60896;SDS011;46749;32.932;-117.130;2022-07-21T07:01:17;0.40;;;0.30;;
60896;SDS011;46749;32.932;-117.130;2022-07-21T07:03:44;0.40;;;0.30;;
60896;SDS011;46749;32.932;-117.130;2022-07-21T07:06:11;0.47;;;0.30;;
60896;SDS011;46749;32.932;-117.130;2022-07-21T07:08:37;0.32;;;0.30;;
60896;SDS011;46749;32.932;-117.130;2022-07-21T07:11:04;0.43;;;0.28;;
60896;SDS011;46749;32.932;-117.130;2022-07-21T07:13:31;0.20;;;0.20;;
60896;SDS011;46749;32.932;-117.130;2022-07-21T07:15:58;0.52;;;0.30;;
60896;SDS011;46749;32.932;-117.130;2022-07-21T07:18:24;0.22;;;0.20;;
60896;SDS011;46749;32.932;-117.130;2022-07-21T07:20:50;0.88;;;0.45;;
60896;SDS011;46749;32.932;-117.130;2022-07-21T07:23:17;0.63;;;0.28;;
60896;SDS011;46749;32.932;-117.130;2022-07-21T07:25:43;0.65;;;0.30;;
60896;SDS011;46749;32.932;-117.130;2022-07-21T07:28:09;0.90;;;0.40;;
60896;SDS011;46749;32.932;-117.130;2022-07-21T07:30:35;0.40;;;0.30;;
60896;SDS011;46749;32.932;-117.130;2022-07-21T07:33:01;0.50;;;0.38;;
60896;SDS011;46749;32.932;-117.130;2022-07-21T07:35:28;1.08;;;0.30;;
60896;SDS011;46749;32.932;-117.130;2022-07-21T07:37:55;0.22;;;0.20;;
60896;SDS011;46749;32.932;-117.130;2022-07-21T07:40:21;0.43;;;0.40;;
60896;SDS011;46749;32.932;-117.130;2022-07-21T07:42:48;0.30;;;0.20;;
60896;SDS011;46749;32.932;-117.130;2022-07-21T07:45:16;0.30;;;0.30;;
60896;SDS011;46749;32.932;-117.130;2022-07-21T07:47:42;0.50;;;0.38;;
60896;SDS011;46749;32.932;-117.130;2022-07-21T07:50:09;0.30;;;0.20;;
60896;SDS011;46749;32.932;-117.130;2022-07-21T07:52:37;0.50;;;0.20;;
60896;SDS011;46749;32.932;-117.130;2022-07-21T07:55:05;0.88;;;0.30;;
60896;SDS011;46749;32.932;-117.130;2022-07-21T07:57:35;0.80;;;0.30;;
60896;SDS011;46749;32.932;-117.130;2022-07-21T08:00:06;0.73;;;0.40;;
60896;SDS011;46749;32.932;-117.130;2022-07-21T08:02:35;1.00;;;0.30;;
60896;SDS011;46749;32.932;-117.130;2022-07-21T08:05:02;0.68;;;0.30;;
60896;SDS011;46749;32.932;-117.130;2022-07-21T08:07:29;0.22;;;0.20;;
60896;SDS011;46749;32.932;-117.130;2022-07-21T08:09:55;0.52;;;0.30;;
60896;SDS011;46749;32.932;-117.130;2022-07-21T08:12:22;0.95;;;0.30;;
60896;SDS011;46749;32.932;-117.130;2022-07-21T08:14:48;0.25;;;0.25;;
60896;SDS011;46749;32.932;-117.130;2022-07-21T08:17:14;0.40;;;0.40;;
60896;SDS011;46749;32.932;-117.130;2022-07-21T08:19:42;0.63;;;0.40;;
60896;SDS011;46749;32.932;-117.130;2022-07-21T08:22:29;0.30;;;0.30;;
60896;SDS011;46749;32.932;-117.130;2022-07-21T08:24:55;0.30;;;0.30;;
60896;SDS011;46749;32.932;-117.130;2022-07-21T08:27:21;0.45;;;0.22;;
60896;SDS011;46749;32.932;-117.130;2022-07-21T08:29:48;0.60;;;0.30;;
60896;SDS011;46749;32.932;-117.130;2022-07-21T08:32:15;0.32;;;0.25;;
60896;SDS011;46749;32.932;-117.130;2022-07-21T08:34:43;0.20;;;0.20;;
60896;SDS011;46749;32.932;-117.130;2022-07-21T08:37:10;0.50;;;0.30;;
60896;SDS011;46749;32.932;-117.130;2022-07-21T08:39:36;0.25;;;0.20;;
60896;SDS011;46749;32.932;-117.130;2022-07-21T08:42:04;0.43;;;0.38;;
60896;SDS011;46749;32.932;-117.130;2022-07-21T08:44:32;0.20;;;0.20;;
60896;SDS011;46749;32.932;-117.130;2022-07-21T08:46:59;0.40;;;0.22;;
60896;SDS011;46749;32.932;-117.130;2022-07-21T08:49:25;0.20;;;0.20;;
60896;SDS011;46749;32.932;-117.130;2022-07-21T08:51:54;0.32;;;0.20;;
60896;SDS011;46749;32.932;-117.130;2022-07-21T08:54:20;0.20;;;0.20;;
60896;SDS011;46749;32.932;-117.130;2022-07-21T08:56:47;0.43;;;0.20;;
60896;SDS011;46749;32.932;-117.130;2022-07-21T08:59:14;0.55;;;0.30;;
60896;SDS011;46749;32.932;-117.130;2022-07-21T09:01:40;0.73;;;0.40;;
60896;SDS011;46749;32.932;-117.130;2022-07-21T09:04:19;0.20;;;0.17;;
60896;SDS011;46749;32.932;-117.130;2022-07-21T09:06:56;1.48;;;0.35;;
60896;SDS011;46749;32.932;-117.130;2022-07-21T09:09:25;0.52;;;0.20;;
60896;SDS011;46749;32.932;-117.130;2022-07-21T09:11:52;0.30;;;0.20;;
60896;SDS011;46749;32.932;-117.130;2022-07-21T09:14:21;0.20;;;0.20;;
60896;SDS011;46749;32.932;-117.130;2022-07-21T09:16:56;0.65;;;0.20;;
60896;SDS011;46749;32.932;-117.130;2022-07-21T09:19:27;0.28;;;0.20;;
60896;SDS011;46749;32.932;-117.130;2022-07-21T09:22:03;0.10;;;0.10;;
60896;SDS011;46749;32.932;-117.130;2022-07-21T09:24:35;0.10;;;0.10;;
60896;SDS011;46749;32.932;-117.130;2022-07-21T09:27:07;0.20;;;0.20;;
60896;SDS011;46749;32.932;-117.130;2022-07-21T09:29:43;0.35;;;0.20;;
60896;SDS011;46749;32.932;-117.130;2022-07-21T09:34:41;0.20;;;0.20;;
60896;SDS011;46749;32.932;-117.130;2022-07-21T09:37:08;0.30;;;0.20;;
60896;SDS011;46749;32.932;-117.130;2022-07-21T09:42:21;0.85;;;0.20;;
60896;SDS011;46749;32.932;-117.130;2022-07-21T09:44:54;0.20;;;0.10;;
60896;SDS011;46749;32.932;-117.130;2022-07-21T09:47:22;0.57;;;0.20;;
60896;SDS011;46749;32.932;-117.130;2022-07-21T09:49:52;0.65;;;0.30;;
60896;SDS011;46749;32.932;-117.130;2022-07-21T09:52:30;0.17;;;0.17;;
60896;SDS011;46749;32.932;-117.130;2022-07-21T09:54:58;0.73;;;0.20;;
60896;SDS011;46749;32.932;-117.130;2022-07-21T09:57:26;0.20;;;0.20;;
60896;SDS011;46749;32.932;-117.130;2022-07-21T09:59:53;0.25;;;0.20;;
60896;SDS011;46749;32.932;-117.130;2022-07-21T10:02:21;0.30;;;0.20;;
60896;SDS011;46749;32.932;-117.130;2022-07-21T10:04:59;0.43;;;0.38;;
60896;SDS011;46749;32.932;-117.130;2022-07-21T10:07:30;0.38;;;0.20;;
60896;SDS011;46749;32.932;-117.130;2022-07-21T10:09:57;0.10;;;0.10;;
60896;SDS011;46749;32.932;-117.130;2022-07-21T10:12:24;0.25;;;0.10;;
60896;SDS011;46749;32.932;-117.130;2022-07-21T10:14:52;0.40;;;0.30;;
60896;SDS011;46749;32.932;-117.130;2022-07-21T10:17:20;0.30;;;0.20;;
60896;SDS011;46749;32.932;-117.130;2022-07-21T10:22:27;0.30;;;0.20;;
60896;SDS011;46749;32.932;-117.130;2022-07-21T10:24:56;0.17;;;0.17;;
60896;SDS011;46749;32.932;-117.130;2022-07-21T10:27:23;0.35;;;0.20;;
60896;SDS011;46749;32.932;-117.130;2022-07-21T10:29:59;0.20;;;0.20;;
60896;SDS011;46749;32.932;-117.130;2022-07-21T10:32:34;0.50;;;0.10;;
60896;SDS011;46749;32.932;-117.130;2022-07-21T10:37:56;0.20;;;0.10;;
60896;SDS011;46749;32.932;-117.130;2022-07-21T10:45:31;0.32;;;0.20;;
60896;SDS011;46749;32.932;-117.130;2022-07-21T10:47:59;0.52;;;0.10;;
60896;SDS011;46749;32.932;-117.130;2022-07-21T10:50:30;0.32;;;0.15;;
60896;SDS011;46749;32.932;-117.130;2022-07-21T10:53:01;0.20;;;0.20;;
60896;SDS011;46749;32.932;-117.130;2022-07-21T10:55:30;0.47;;;0.20;;
60896;SDS011;46749;32.932;-117.130;2022-07-21T11:00:56;0.47;;;0.20;;
60896;SDS011;46749;32.932;-117.130;2022-07-21T11:03:27;0.20;;;0.10;;
60896;SDS011;46749;32.932;-117.130;2022-07-21T11:06:15;0.08;;;0.08;;
60896;SDS011;46749;32.932;-117.130;2022-07-21T11:14:36;0.10;;;0.10;;
60896;SDS011;46749;32.932;-117.130;2022-07-21T11:17:03;0.20;;;0.10;;
60896;SDS011;46749;32.932;-117.130;2022-07-21T11:19:47;0.15;;;0.15;;
60896;SDS011;46749;32.932;-117.130;2022-07-21T11:22:19;0.45;;;0.17;;
60896;SDS011;46749;32.932;-117.130;2022-07-21T11:24:57;0.47;;;0.17;;
60896;SDS011;46749;32.932;-117.130;2022-07-21T11:27:25;0.20;;;0.20;;
60896;SDS011;46749;32.932;-117.130;2022-07-21T11:29:54;1.17;;;0.17;;
60896;SDS011;46749;32.932;-117.130;2022-07-21T11:32:22;0.17;;;0.10;;
60896;SDS011;46749;32.932;-117.130;2022-07-21T11:34:50;0.10;;;0.10;;
60896;SDS011;46749;32.932;-117.130;2022-07-21T11:37:18;0.20;;;0.20;;
60896;SDS011;46749;32.932;-117.130;2022-07-21T11:39:52;0.10;;;0.10;;
60896;SDS011;46749;32.932;-117.130;2022-07-21T11:42:18;0.20;;;0.20;;
60896;SDS011;46749;32.932;-117.130;2022-07-21T11:44:45;0.77;;;0.20;;
60896;SDS011;46749;32.932;-117.130;2022-07-21T11:47:13;0.17;;;0.17;;
60896;SDS011;46749;32.932;-117.130;2022-07-21T11:49:41;0.08;;;0.08;;
60896;SDS011;46749;32.932;-117.130;2022-07-21T11:52:09;0.10;;;0.10;;
60896;SDS011;46749;32.932;-117.130;2022-07-21T11:54:43;0.20;;;0.10;;
60896;SDS011;46749;32.932;-117.130;2022-07-21T11:57:09;0.17;;;0.17;;
60896;SDS011;46749;32.932;-117.130;2022-07-21T11:59:36;0.10;;;0.10;;
60896;SDS011;46749;32.932;-117.130;2022-07-21T12:02:09;0.10;;;0.10;;
60896;SDS011;46749;32.932;-117.130;2022-07-21T12:04:41;0.13;;;0.10;;
60896;SDS011;46749;32.932;-117.130;2022-07-21T12:09:50;0.10;;;0.10;;
60896;SDS011;46749;32.932;-117.130;2022-07-21T12:12:34;0.10;;;0.10;;
60896;SDS011;46749;32.932;-117.130;2022-07-21T12:17:46;0.25;;;0.10;;
60896;SDS011;46749;32.932;-117.130;2022-07-21T12:20:15;0.20;;;0.20;;
60896;SDS011;46749;32.932;-117.130;2022-07-21T12:22:52;0.10;;;0.10;;
60896;SDS011;46749;32.932;-117.130;2022-07-21T12:25:29;0.10;;;0.10;;
60896;SDS011;46749;32.932;-117.130;2022-07-21T12:28:05;0.28;;;0.10;;
60896;SDS011;46749;32.932;-117.130;2022-07-21T12:30:39;0.08;;;0.08;;
60896;SDS011;46749;32.932;-117.130;2022-07-21T12:33:10;0.03;;;0.03;;
60896;SDS011;46749;32.932;-117.130;2022-07-21T12:35:39;0.10;;;0.10;;
60896;SDS011;46749;32.932;-117.130;2022-07-21T12:38:11;0.10;;;0.10;;
60896;SDS011;46749;32.932;-117.130;2022-07-21T12:40:40;0.10;;;0.10;;
60896;SDS011;46749;32.932;-117.130;2022-07-21T12:43:12;0.10;;;0.10;;
60896;SDS011;46749;32.932;-117.130;2022-07-21T12:45:56;0.10;;;0.10;;
60896;SDS011;46749;32.932;-117.130;2022-07-21T12:48:26;0.10;;;0.10;;
60896;SDS011;46749;32.932;-117.130;2022-07-21T12:51:01;0.17;;;0.17;;
60896;SDS011;46749;32.932;-117.130;2022-07-21T12:53:31;0.20;;;0.20;;
60896;SDS011;46749;32.932;-117.130;2022-07-21T12:55:59;0.10;;;0.10;;
60896;SDS011;46749;32.932;-117.130;2022-07-21T12:58:25;0.10;;;0.10;;
60896;SDS011;46749;32.932;-117.130;2022-07-21T13:00:52;0.05;;;0.05;;
60896;SDS011;46749;32.932;-117.130;2022-07-21T13:03:18;0.00;;;0.00;;
60896;SDS011;46749;32.932;-117.130;2022-07-21T13:05:44;0.38;;;0.10;;
60896;SDS011;46749;32.932;-117.130;2022-07-21T13:08:11;0.00;;;0.00;;
60896;SDS011;46749;32.932;-117.130;2022-07-21T13:10:37;0.35;;;0.10;;
60896;SDS011;46749;32.932;-117.130;2022-07-21T13:13:03;0.10;;;0.10;;
60896;SDS011;46749;32.932;-117.130;2022-07-21T13:15:29;0.10;;;0.10;;
60896;SDS011;46749;32.932;-117.130;2022-07-21T13:17:55;0.10;;;0.10;;
60896;SDS011;46749;32.932;-117.130;2022-07-21T13:20:21;0.10;;;0.10;;
60896;SDS011;46749;32.932;-117.130;2022-07-21T13:22:48;0.10;;;0.00;;
60896;SDS011;46749;32.932;-117.130;2022-07-21T13:25:14;0.10;;;0.10;;
60896;SDS011;46749;32.932;-117.130;2022-07-21T13:27:40;0.35;;;0.10;;
60896;SDS011;46749;32.932;-117.130;2022-07-21T13:30:06;0.00;;;0.00;;
60896;SDS011;46749;32.932;-117.130;2022-07-21T13:32:34;0.15;;;0.10;;
60896;SDS011;46749;32.932;-117.130;2022-07-21T13:35:02;0.00;;;0.00;;
60896;SDS011;46749;32.932;-117.130;2022-07-21T13:37:30;0.20;;;0.10;;
60896;SDS011;46749;32.932;-117.130;2022-07-21T13:39:56;0.10;;;0.10;;
60896;SDS011;46749;32.932;-117.130;2022-07-21T13:42:22;0.10;;;0.10;;
60896;SDS011;46749;32.932;-117.130;2022-07-21T13:44:48;0.25;;;0.20;;
60896;SDS011;46749;32.932;-117.130;2022-07-21T13:47:14;0.08;;;0.08;;
60896;SDS011;46749;32.932;-117.130;2022-07-21T13:49:40;0.28;;;0.00;;
60896;SDS011;46749;32.932;-117.130;2022-07-21T13:52:07;0.05;;;0.05;;
60896;SDS011;46749;32.932;-117.130;2022-07-21T13:54:34;0.10;;;0.10;;
60896;SDS011;46749;32.932;-117.130;2022-07-21T13:57:01;0.60;;;0.20;;
60896;SDS011;46749;32.932;-117.130;2022-07-21T13:59:27;0.00;;;0.00;;
60896;SDS011;46749;32.932;-117.130;2022-07-21T14:01:53;0.10;;;0.10;;
60896;SDS011;46749;32.932;-117.130;2022-07-21T14:04:21;0.30;;;0.20;;
60896;SDS011;46749;32.932;-117.130;2022-07-21T14:06:48;0.10;;;0.10;;
60896;SDS011;46749;32.932;-117.130;2022-07-21T14:09:18;0.10;;;0.10;;
60896;SDS011;46749;32.932;-117.130;2022-07-21T14:11:44;0.10;;;0.10;;
60896;SDS011;46749;32.932;-117.130;2022-07-21T14:14:12;0.08;;;0.08;;
60896;SDS011;46749;32.932;-117.130;2022-07-21T14:16:43;0.03;;;0.03;;
60896;SDS011;46749;32.932;-117.130;2022-07-21T14:19:09;0.05;;;0.05;;
60896;SDS011;46749;32.932;-117.130;2022-07-21T14:21:36;0.10;;;0.10;;
60896;SDS011;46749;32.932;-117.130;2022-07-21T14:24:02;0.05;;;0.05;;
60896;SDS011;46749;32.932;-117.130;2022-07-21T14:26:46;0.10;;;0.10;;
60896;SDS011;46749;32.932;-117.130;2022-07-21T14:29:12;0.00;;;0.00;;
60896;SDS011;46749;32.932;-117.130;2022-07-21T14:31:38;0.10;;;0.10;;
60896;SDS011;46749;32.932;-117.130;2022-07-21T14:34:04;0.10;;;0.10;;
60896;SDS011;46749;32.932;-117.130;2022-07-21T14:36:30;0.10;;;0.10;;
60896;SDS011;46749;32.932;-117.130;2022-07-21T14:38:57;0.00;;;0.00;;
60896;SDS011;46749;32.932;-117.130;2022-07-21T14:41:23;0.00;;;0.00;;
60896;SDS011;46749;32.932;-117.130;2022-07-21T14:43:49;0.10;;;0.10;;